Terminal Aerodrome Forecast
Issued by NWS

Home | Current Version | Previous Version | Text Only | Print | Product List | Glossary On
Versions: 1 2 3 4 5 6 7 8 9 10 11 12 13 14 15
000
FTAK31 PANC 230540
TAFADQ
TAF
PADQ 230540Z 2306/2406 VRB06KT P6SM VCSH OVC060
      TEMPO 2306/2310 3SM -SN BKN020 OVC035
     FM231000 17010KT 3SM -SN BKN020 OVC035
     FM231200 29010KT 5SM -SHSN BKN035
     FM231600 28010G20KT P6SM VCSH BKN035
     FM232200 32015G25KT P6SM VCSH BKN050=

USA.gov is the U.S. government's official web portal to all federal, state and local government web resources and services.